sensor_id;sensor_type;location;lat;lon;timestamp;P1;durP1;ratioP1;P2;durP2;ratioP2
51525;SDS011;37611;51.794;21.590;2023-10-09T00:03:41;7.80;;;3.60;;
51525;SDS011;37611;51.794;21.590;2023-10-09T00:07:44;6.60;;;3.30;;
51525;SDS011;37611;51.794;21.590;2023-10-09T00:11:47;9.80;;;4.50;;
51525;SDS011;37611;51.794;21.590;2023-10-09T00:15:49;9.40;;;4.80;;
51525;SDS011;37611;51.794;21.590;2023-10-09T00:19:54;9.40;;;4.60;;
51525;SDS011;37611;51.794;21.590;2023-10-09T00:24:01;7.90;;;5.00;;
51525;SDS011;37611;51.794;21.590;2023-10-09T00:28:07;9.40;;;6.10;;
51525;SDS011;37611;51.794;21.590;2023-10-09T00:32:12;11.50;;;6.10;;
51525;SDS011;37611;51.794;21.590;2023-10-09T00:36:24;11.20;;;5.50;;
51525;SDS011;37611;51.794;21.590;2023-10-09T00:40:30;8.80;;;5.30;;
51525;SDS011;37611;51.794;21.590;2023-10-09T00:44:34;10.00;;;5.10;;
51525;SDS011;37611;51.794;21.590;2023-10-09T00:48:39;9.10;;;4.70;;
51525;SDS011;37611;51.794;21.590;2023-10-09T00:52:42;10.70;;;5.10;;
51525;SDS011;37611;51.794;21.590;2023-10-09T00:56:55;9.30;;;4.90;;
51525;SDS011;37611;51.794;21.590;2023-10-09T01:01:00;13.20;;;6.70;;
51525;SDS011;37611;51.794;21.590;2023-10-09T01:05:05;10.00;;;5.60;;
51525;SDS011;37611;51.794;21.590;2023-10-09T01:09:20;10.20;;;4.90;;
51525;SDS011;37611;51.794;21.590;2023-10-09T01:13:23;9.40;;;5.20;;
51525;SDS011;37611;51.794;21.590;2023-10-09T01:17:40;9.60;;;4.90;;
51525;SDS011;37611;51.794;21.590;2023-10-09T01:21:46;7.40;;;4.40;;
51525;SDS011;37611;51.794;21.590;2023-10-09T01:25:49;8.00;;;5.40;;
51525;SDS011;37611;51.794;21.590;2023-10-09T01:29:51;8.00;;;4.50;;
51525;SDS011;37611;51.794;21.590;2023-10-09T01:33:53;9.10;;;4.70;;
51525;SDS011;37611;51.794;21.590;2023-10-09T01:38:00;8.30;;;4.00;;
51525;SDS011;37611;51.794;21.590;2023-10-09T01:42:02;7.00;;;3.70;;
51525;SDS011;37611;51.794;21.590;2023-10-09T01:46:07;7.80;;;4.00;;
51525;SDS011;37611;51.794;21.590;2023-10-09T01:50:12;7.70;;;4.70;;
51525;SDS011;37611;51.794;21.590;2023-10-09T01:54:21;7.00;;;4.00;;
51525;SDS011;37611;51.794;21.590;2023-10-09T01:58:38;9.70;;;4.10;;
51525;SDS011;37611;51.794;21.590;2023-10-09T02:02:39;8.60;;;4.10;;
51525;SDS011;37611;51.794;21.590;2023-10-09T02:06:46;8.60;;;3.90;;
51525;SDS011;37611;51.794;21.590;2023-10-09T02:10:53;7.30;;;4.50;;
51525;SDS011;37611;51.794;21.590;2023-10-09T02:14:57;7.10;;;4.00;;
51525;SDS011;37611;51.794;21.590;2023-10-09T02:18:59;8.20;;;4.10;;
51525;SDS011;37611;51.794;21.590;2023-10-09T02:23:01;7.90;;;4.40;;
51525;SDS011;37611;51.794;21.590;2023-10-09T02:27:03;7.20;;;4.50;;
51525;SDS011;37611;51.794;21.590;2023-10-09T02:31:11;8.30;;;4.00;;
51525;SDS011;37611;51.794;21.590;2023-10-09T02:35:14;5.90;;;3.70;;
51525;SDS011;37611;51.794;21.590;2023-10-09T02:39:34;7.70;;;4.20;;
51525;SDS011;37611;51.794;21.590;2023-10-09T02:43:45;9.30;;;4.90;;
51525;SDS011;37611;51.794;21.590;2023-10-09T02:47:51;9.80;;;4.30;;
51525;SDS011;37611;51.794;21.590;2023-10-09T02:51:53;9.40;;;4.40;;
51525;SDS011;37611;51.794;21.590;2023-10-09T02:55:55;7.90;;;4.40;;
51525;SDS011;37611;51.794;21.590;2023-10-09T03:00:15;8.00;;;4.20;;
51525;SDS011;37611;51.794;21.590;2023-10-09T03:04:30;9.30;;;5.10;;
51525;SDS011;37611;51.794;21.590;2023-10-09T03:08:32;9.70;;;4.50;;
51525;SDS011;37611;51.794;21.590;2023-10-09T03:12:37;9.40;;;4.40;;
51525;SDS011;37611;51.794;21.590;2023-10-09T03:16:40;10.50;;;5.30;;
51525;SDS011;37611;51.794;21.590;2023-10-09T03:20:42;9.30;;;5.10;;
51525;SDS011;37611;51.794;21.590;2023-10-09T03:24:45;7.70;;;4.90;;
51525;SDS011;37611;51.794;21.590;2023-10-09T03:28:48;8.90;;;5.00;;
51525;SDS011;37611;51.794;21.590;2023-10-09T03:32:51;7.50;;;4.20;;
51525;SDS011;37611;51.794;21.590;2023-10-09T03:36:54;10.50;;;5.00;;
51525;SDS011;37611;51.794;21.590;2023-10-09T03:41:22;7.30;;;4.20;;
51525;SDS011;37611;51.794;21.590;2023-10-09T03:45:25;6.30;;;3.90;;
51525;SDS011;37611;51.794;21.590;2023-10-09T03:49:28;7.60;;;4.10;;
51525;SDS011;37611;51.794;21.590;2023-10-09T03:53:30;8.80;;;3.90;;
51525;SDS011;37611;51.794;21.590;2023-10-09T03:57:32;6.90;;;3.80;;
51525;SDS011;37611;51.794;21.590;2023-10-09T04:01:35;5.90;;;4.20;;
51525;SDS011;37611;51.794;21.590;2023-10-09T04:05:41;8.40;;;4.40;;
51525;SDS011;37611;51.794;21.590;2023-10-09T04:09:46;15.20;;;8.50;;
51525;SDS011;37611;51.794;21.590;2023-10-09T04:14:03;14.80;;;8.70;;
51525;SDS011;37611;51.794;21.590;2023-10-09T04:18:11;17.00;;;9.40;;
51525;SDS011;37611;51.794;21.590;2023-10-09T04:22:19;13.60;;;7.80;;
51525;SDS011;37611;51.794;21.590;2023-10-09T04:26:28;10.30;;;6.30;;
51525;SDS011;37611;51.794;21.590;2023-10-09T04:30:30;11.10;;;6.60;;
51525;SDS011;37611;51.794;21.590;2023-10-09T04:34:41;8.10;;;5.10;;
51525;SDS011;37611;51.794;21.590;2023-10-09T04:38:53;9.30;;;5.40;;
51525;SDS011;37611;51.794;21.590;2023-10-09T04:43:05;9.20;;;5.90;;
51525;SDS011;37611;51.794;21.590;2023-10-09T04:47:21;8.40;;;5.80;;
51525;SDS011;37611;51.794;21.590;2023-10-09T04:51:27;9.80;;;5.20;;
51525;SDS011;37611;51.794;21.590;2023-10-09T04:55:38;9.90;;;5.60;;
51525;SDS011;37611;51.794;21.590;2023-10-09T04:59:40;8.00;;;5.30;;
51525;SDS011;37611;51.794;21.590;2023-10-09T05:03:49;9.90;;;6.10;;
51525;SDS011;37611;51.794;21.590;2023-10-09T05:07:58;7.70;;;5.30;;
51525;SDS011;37611;51.794;21.590;2023-10-09T05:12:18;9.00;;;4.70;;
51525;SDS011;37611;51.794;21.590;2023-10-09T05:16:20;10.30;;;5.70;;
51525;SDS011;37611;51.794;21.590;2023-10-09T05:20:26;8.10;;;5.60;;
51525;SDS011;37611;51.794;21.590;2023-10-09T05:24:28;9.20;;;5.30;;
51525;SDS011;37611;51.794;21.590;2023-10-09T05:28:43;7.80;;;4.90;;
51525;SDS011;37611;51.794;21.590;2023-10-09T05:32:54;9.40;;;5.00;;
51525;SDS011;37611;51.794;21.590;2023-10-09T05:37:03;10.60;;;5.60;;
51525;SDS011;37611;51.794;21.590;2023-10-09T05:41:26;8.10;;;5.20;;
51525;SDS011;37611;51.794;21.590;2023-10-09T05:45:48;8.70;;;5.30;;
51525;SDS011;37611;51.794;21.590;2023-10-09T05:50:08;12.10;;;5.30;;
51525;SDS011;37611;51.794;21.590;2023-10-09T05:54:10;11.40;;;6.40;;
51525;SDS011;37611;51.794;21.590;2023-10-09T05:58:31;9.70;;;5.30;;
51525;SDS011;37611;51.794;21.590;2023-10-09T06:02:51;11.00;;;6.90;;
51525;SDS011;37611;51.794;21.590;2023-10-09T06:07:11;35.90;;;31.20;;
51525;SDS011;37611;51.794;21.590;2023-10-09T06:11:15;10.30;;;6.00;;
51525;SDS011;37611;51.794;21.590;2023-10-09T06:15:49;13.90;;;6.30;;
51525;SDS011;37611;51.794;21.590;2023-10-09T06:20:10;10.00;;;6.80;;
51525;SDS011;37611;51.794;21.590;2023-10-09T06:24:39;15.90;;;8.90;;
51525;SDS011;37611;51.794;21.590;2023-10-09T06:28:41;13.80;;;8.10;;
51525;SDS011;37611;51.794;21.590;2023-10-09T06:32:51;9.70;;;6.90;;
51525;SDS011;37611;51.794;21.590;2023-10-09T06:36:59;13.70;;;8.40;;
51525;SDS011;37611;51.794;21.590;2023-10-09T06:41:28;14.60;;;9.10;;
51525;SDS011;37611;51.794;21.590;2023-10-09T06:45:39;18.70;;;11.60;;
51525;SDS011;37611;51.794;21.590;2023-10-09T06:49:46;20.20;;;12.10;;
51525;SDS011;37611;51.794;21.590;2023-10-09T06:54:08;20.30;;;10.90;;
51525;SDS011;37611;51.794;21.590;2023-10-09T06:58:17;22.20;;;10.00;;
51525;SDS011;37611;51.794;21.590;2023-10-09T07:02:29;30.90;;;12.00;;
51525;SDS011;37611;51.794;21.590;2023-10-09T07:06:37;25.50;;;10.80;;
51525;SDS011;37611;51.794;21.590;2023-10-09T07:10:39;22.20;;;9.70;;
51525;SDS011;37611;51.794;21.590;2023-10-09T07:14:41;21.20;;;10.10;;
51525;SDS011;37611;51.794;21.590;2023-10-09T07:18:42;17.10;;;9.90;;
51525;SDS011;37611;51.794;21.590;2023-10-09T07:22:50;16.30;;;9.10;;
51525;SDS011;37611;51.794;21.590;2023-10-09T07:26:57;17.10;;;10.50;;
51525;SDS011;37611;51.794;21.590;2023-10-09T07:31:07;15.10;;;9.10;;
51525;SDS011;37611;51.794;21.590;2023-10-09T07:35:18;13.00;;;7.40;;
51525;SDS011;37611;51.794;21.590;2023-10-09T07:39:40;12.60;;;8.10;;
51525;SDS011;37611;51.794;21.590;2023-10-09T07:43:51;12.70;;;8.40;;
51525;SDS011;37611;51.794;21.590;2023-10-09T07:47:52;11.30;;;7.20;;
51525;SDS011;37611;51.794;21.590;2023-10-09T07:52:07;14.20;;;8.90;;
51525;SDS011;37611;51.794;21.590;2023-10-09T07:56:09;16.70;;;10.90;;
51525;SDS011;37611;51.794;21.590;2023-10-09T08:00:11;13.60;;;8.20;;
51525;SDS011;37611;51.794;21.590;2023-10-09T08:04:33;13.70;;;8.00;;
51525;SDS011;37611;51.794;21.590;2023-10-09T08:08:49;13.80;;;8.10;;
51525;SDS011;37611;51.794;21.590;2023-10-09T08:13:11;14.70;;;9.80;;
51525;SDS011;37611;51.794;21.590;2023-10-09T08:17:38;15.00;;;7.90;;
51525;SDS011;37611;51.794;21.590;2023-10-09T08:21:40;9.90;;;7.20;;
51525;SDS011;37611;51.794;21.590;2023-10-09T08:26:05;16.10;;;8.70;;
51525;SDS011;37611;51.794;21.590;2023-10-09T08:30:16;14.10;;;7.40;;
51525;SDS011;37611;51.794;21.590;2023-10-09T08:34:20;23.80;;;15.90;;
51525;SDS011;37611;51.794;21.590;2023-10-09T08:38:27;25.60;;;13.60;;
51525;SDS011;37611;51.794;21.590;2023-10-09T08:42:34;14.40;;;8.70;;
51525;SDS011;37611;51.794;21.590;2023-10-09T08:46:36;19.90;;;10.60;;
51525;SDS011;37611;51.794;21.590;2023-10-09T08:50:38;13.90;;;8.50;;
51525;SDS011;37611;51.794;21.590;2023-10-09T08:54:41;14.10;;;8.00;;
51525;SDS011;37611;51.794;21.590;2023-10-09T08:58:45;82.60;;;17.40;;
51525;SDS011;37611;51.794;21.590;2023-10-09T09:02:47;30.60;;;9.40;;
51525;SDS011;37611;51.794;21.590;2023-10-09T09:06:49;17.70;;;9.40;;
51525;SDS011;37611;51.794;21.590;2023-10-09T09:10:56;13.50;;;7.90;;
51525;SDS011;37611;51.794;21.590;2023-10-09T09:15:13;6.50;;;5.00;;
51525;SDS011;37611;51.794;21.590;2023-10-09T09:19:30;7.10;;;4.70;;
51525;SDS011;37611;51.794;21.590;2023-10-09T09:23:33;9.10;;;5.60;;
51525;SDS011;37611;51.794;21.590;2023-10-09T09:27:44;64.70;;;13.00;;
51525;SDS011;37611;51.794;21.590;2023-10-09T09:32:11;7.60;;;5.20;;
51525;SDS011;37611;51.794;21.590;2023-10-09T09:36:22;16.00;;;5.20;;
51525;SDS011;37611;51.794;21.590;2023-10-09T09:40:31;80.00;;;13.10;;
51525;SDS011;37611;51.794;21.590;2023-10-09T09:44:34;6.70;;;3.40;;
51525;SDS011;37611;51.794;21.590;2023-10-09T09:48:44;5.50;;;3.70;;
51525;SDS011;37611;51.794;21.590;2023-10-09T09:52:48;5.50;;;3.50;;
51525;SDS011;37611;51.794;21.590;2023-10-09T09:56:54;7.50;;;3.30;;
51525;SDS011;37611;51.794;21.590;2023-10-09T10:01:00;65.40;;;10.10;;
51525;SDS011;37611;51.794;21.590;2023-10-09T10:05:09;8.30;;;3.90;;
51525;SDS011;37611;51.794;21.590;2023-10-09T10:22:03;7.30;;;4.20;;
51525;SDS011;37611;51.794;21.590;2023-10-09T10:26:29;10.00;;;6.80;;
51525;SDS011;37611;51.794;21.590;2023-10-09T10:30:31;7.30;;;4.00;;
51525;SDS011;37611;51.794;21.590;2023-10-09T10:43:20;8.70;;;4.60;;
51525;SDS011;37611;51.794;21.590;2023-10-09T10:47:49;35.30;;;8.60;;
51525;SDS011;37611;51.794;21.590;2023-10-09T10:51:51;8.70;;;5.20;;
51525;SDS011;37611;51.794;21.590;2023-10-09T10:56:04;11.80;;;5.00;;
51525;SDS011;37611;51.794;21.590;2023-10-09T11:00:14;9.40;;;5.10;;
51525;SDS011;37611;51.794;21.590;2023-10-09T11:04:36;28.30;;;7.90;;
51525;SDS011;37611;51.794;21.590;2023-10-09T11:08:45;7.40;;;4.90;;
51525;SDS011;37611;51.794;21.590;2023-10-09T11:12:56;8.20;;;5.60;;
51525;SDS011;37611;51.794;21.590;2023-10-09T11:17:14;7.70;;;5.00;;
51525;SDS011;37611;51.794;21.590;2023-10-09T11:21:26;8.90;;;5.60;;
51525;SDS011;37611;51.794;21.590;2023-10-09T11:25:42;10.30;;;5.80;;
51525;SDS011;37611;51.794;21.590;2023-10-09T11:30:06;10.80;;;5.80;;
51525;SDS011;37611;51.794;21.590;2023-10-09T11:34:23;12.80;;;8.00;;
51525;SDS011;37611;51.794;21.590;2023-10-09T11:38:35;10.40;;;7.30;;
51525;SDS011;37611;51.794;21.590;2023-10-09T11:42:37;11.40;;;6.70;;
51525;SDS011;37611;51.794;21.590;2023-10-09T11:46:40;14.40;;;8.60;;
51525;SDS011;37611;51.794;21.590;2023-10-09T11:50:51;9.40;;;6.20;;
51525;SDS011;37611;51.794;21.590;2023-10-09T11:55:17;10.20;;;6.70;;
51525;SDS011;37611;51.794;21.590;2023-10-09T11:59:19;13.80;;;9.50;;
51525;SDS011;37611;51.794;21.590;2023-10-09T12:03:20;11.80;;;7.50;;
51525;SDS011;37611;51.794;21.590;2023-10-09T12:07:25;10.40;;;5.90;;
51525;SDS011;37611;51.794;21.590;2023-10-09T12:11:27;10.20;;;5.90;;
51525;SDS011;37611;51.794;21.590;2023-10-09T12:15:33;9.30;;;5.80;;
51525;SDS011;37611;51.794;21.590;2023-10-09T12:19:38;8.00;;;5.40;;
51525;SDS011;37611;51.794;21.590;2023-10-09T12:23:41;8.50;;;5.80;;
51525;SDS011;37611;51.794;21.590;2023-10-09T12:27:45;8.40;;;5.20;;
51525;SDS011;37611;51.794;21.590;2023-10-09T12:31:47;7.80;;;4.20;;
51525;SDS011;37611;51.794;21.590;2023-10-09T12:35:49;7.90;;;4.60;;
51525;SDS011;37611;51.794;21.590;2023-10-09T12:39:51;6.40;;;4.30;;
51525;SDS011;37611;51.794;21.590;2023-10-09T12:43:57;14.80;;;10.20;;
51525;SDS011;37611;51.794;21.590;2023-10-09T12:48:00;15.60;;;9.00;;
51525;SDS011;37611;51.794;21.590;2023-10-09T12:52:04;10.70;;;7.10;;
51525;SDS011;37611;51.794;21.590;2023-10-09T12:56:16;31.40;;;19.20;;
51525;SDS011;37611;51.794;21.590;2023-10-09T13:00:19;10.70;;;8.50;;
51525;SDS011;37611;51.794;21.590;2023-10-09T13:04:26;8.20;;;7.30;;
51525;SDS011;37611;51.794;21.590;2023-10-09T13:08:33;7.50;;;6.20;;
51525;SDS011;37611;51.794;21.590;2023-10-09T13:12:36;8.40;;;5.50;;
51525;SDS011;37611;51.794;21.590;2023-10-09T13:16:44;8.80;;;5.50;;
51525;SDS011;37611;51.794;21.590;2023-10-09T13:20:46;10.10;;;6.80;;
51525;SDS011;37611;51.794;21.590;2023-10-09T13:24:48;10.30;;;5.30;;
51525;SDS011;37611;51.794;21.590;2023-10-09T13:28:51;35.80;;;18.90;;
51525;SDS011;37611;51.794;21.590;2023-10-09T13:32:54;17.00;;;11.60;;
51525;SDS011;37611;51.794;21.590;2023-10-09T13:36:56;36.30;;;33.10;;
51525;SDS011;37611;51.794;21.590;2023-10-09T13:41:01;9.10;;;7.20;;
51525;SDS011;37611;51.794;21.590;2023-10-09T13:45:03;11.70;;;6.40;;
51525;SDS011;37611;51.794;21.590;2023-10-09T13:49:17;8.40;;;5.00;;
51525;SDS011;37611;51.794;21.590;2023-10-09T13:53:19;8.60;;;6.00;;
51525;SDS011;37611;51.794;21.590;2023-10-09T13:57:21;9.10;;;5.60;;
51525;SDS011;37611;51.794;21.590;2023-10-09T14:01:32;10.60;;;6.00;;
51525;SDS011;37611;51.794;21.590;2023-10-09T14:05:35;13.40;;;6.30;;
51525;SDS011;37611;51.794;21.590;2023-10-09T14:09:53;10.50;;;5.50;;
51525;SDS011;37611;51.794;21.590;2023-10-09T14:14:08;61.90;;;35.20;;
51525;SDS011;37611;51.794;21.590;2023-10-09T14:18:11;14.30;;;9.20;;
51525;SDS011;37611;51.794;21.590;2023-10-09T14:22:14;20.20;;;11.80;;
51525;SDS011;37611;51.794;21.590;2023-10-09T14:26:19;90.40;;;54.00;;
51525;SDS011;37611;51.794;21.590;2023-10-09T14:30:23;19.00;;;12.70;;
51525;SDS011;37611;51.794;21.590;2023-10-09T14:34:31;8.90;;;6.20;;
51525;SDS011;37611;51.794;21.590;2023-10-09T14:38:37;11.80;;;10.50;;
51525;SDS011;37611;51.794;21.590;2023-10-09T14:42:39;10.50;;;6.70;;
51525;SDS011;37611;51.794;21.590;2023-10-09T14:46:45;8.50;;;6.10;;
51525;SDS011;37611;51.794;21.590;2023-10-09T14:50:47;8.70;;;6.40;;
51525;SDS011;37611;51.794;21.590;2023-10-09T14:54:50;8.30;;;6.00;;
51525;SDS011;37611;51.794;21.590;2023-10-09T14:58:57;9.50;;;5.40;;
51525;SDS011;37611;51.794;21.590;2023-10-09T15:03:00;10.80;;;5.40;;
51525;SDS011;37611;51.794;21.590;2023-10-09T15:07:02;18.30;;;12.90;;
51525;SDS011;37611;51.794;21.590;2023-10-09T15:11:08;11.10;;;7.50;;
51525;SDS011;37611;51.794;21.590;2023-10-09T15:15:10;17.50;;;9.80;;
51525;SDS011;37611;51.794;21.590;2023-10-09T15:19:15;15.60;;;10.40;;
51525;SDS011;37611;51.794;21.590;2023-10-09T15:23:18;17.40;;;11.40;;
51525;SDS011;37611;51.794;21.590;2023-10-09T15:27:23;17.70;;;14.40;;
51525;SDS011;37611;51.794;21.590;2023-10-09T15:31:25;15.40;;;11.60;;
51525;SDS011;37611;51.794;21.590;2023-10-09T15:35:28;14.00;;;11.30;;
51525;SDS011;37611;51.794;21.590;2023-10-09T15:39:30;15.90;;;11.90;;
51525;SDS011;37611;51.794;21.590;2023-10-09T15:43:34;20.40;;;12.70;;
51525;SDS011;37611;51.794;21.590;2023-10-09T15:47:37;14.90;;;10.90;;
51525;SDS011;37611;51.794;21.590;2023-10-09T15:51:40;21.10;;;16.00;;
51525;SDS011;37611;51.794;21.590;2023-10-09T15:55:44;18.90;;;13.10;;
51525;SDS011;37611;51.794;21.590;2023-10-09T15:59:47;13.50;;;10.20;;
51525;SDS011;37611;51.794;21.590;2023-10-09T16:03:51;14.80;;;9.80;;
51525;SDS011;37611;51.794;21.590;2023-10-09T16:07:55;15.10;;;9.70;;
51525;SDS011;37611;51.794;21.590;2023-10-09T16:11:56;15.20;;;10.10;;
51525;SDS011;37611;51.794;21.590;2023-10-09T16:15:59;15.90;;;10.70;;
51525;SDS011;37611;51.794;21.590;2023-10-09T16:20:02;19.50;;;11.00;;
51525;SDS011;37611;51.794;21.590;2023-10-09T16:24:07;20.50;;;13.70;;
51525;SDS011;37611;51.794;21.590;2023-10-09T16:28:11;42.80;;;33.00;;
51525;SDS011;37611;51.794;21.590;2023-10-09T16:32:13;54.90;;;39.50;;
51525;SDS011;37611;51.794;21.590;2023-10-09T16:36:15;27.90;;;18.30;;
51525;SDS011;37611;51.794;21.590;2023-10-09T16:40:17;25.20;;;16.80;;
51525;SDS011;37611;51.794;21.590;2023-10-09T16:44:21;27.00;;;18.30;;
51525;SDS011;37611;51.794;21.590;2023-10-09T16:48:24;28.10;;;20.00;;
51525;SDS011;37611;51.794;21.590;2023-10-09T16:52:29;21.30;;;16.20;;
51525;SDS011;37611;51.794;21.590;2023-10-09T16:56:31;32.80;;;20.00;;
51525;SDS011;37611;51.794;21.590;2023-10-09T17:00:34;90.90;;;47.10;;
51525;SDS011;37611;51.794;21.590;2023-10-09T17:04:36;153.20;;;112.20;;
51525;SDS011;37611;51.794;21.590;2023-10-09T17:08:38;134.40;;;84.80;;
51525;SDS011;37611;51.794;21.590;2023-10-09T17:12:43;128.90;;;71.90;;
51525;SDS011;37611;51.794;21.590;2023-10-09T17:16:47;122.50;;;61.90;;
51525;SDS011;37611;51.794;21.590;2023-10-09T17:20:49;98.00;;;51.60;;
51525;SDS011;37611;51.794;21.590;2023-10-09T17:24:51;95.60;;;48.80;;
51525;SDS011;37611;51.794;21.590;2023-10-09T17:28:53;92.70;;;44.80;;
51525;SDS011;37611;51.794;21.590;2023-10-09T17:32:55;67.80;;;38.90;;
51525;SDS011;37611;51.794;21.590;2023-10-09T17:36:59;77.40;;;45.00;;
51525;SDS011;37611;51.794;21.590;2023-10-09T17:41:01;64.90;;;39.20;;
51525;SDS011;37611;51.794;21.590;2023-10-09T17:45:03;72.90;;;41.80;;
51525;SDS011;37611;51.794;21.590;2023-10-09T17:49:06;115.20;;;70.70;;
51525;SDS011;37611;51.794;21.590;2023-10-09T17:53:08;145.90;;;86.90;;
51525;SDS011;37611;51.794;21.590;2023-10-09T17:57:10;118.10;;;72.80;;
51525;SDS011;37611;51.794;21.590;2023-10-09T18:01:11;144.60;;;82.60;;
51525;SDS011;37611;51.794;21.590;2023-10-09T18:05:13;178.70;;;108.20;;
51525;SDS011;37611;51.794;21.590;2023-10-09T18:09:15;184.30;;;112.80;;
51525;SDS011;37611;51.794;21.590;2023-10-09T18:13:17;76.70;;;47.80;;
51525;SDS011;37611;51.794;21.590;2023-10-09T18:17:18;72.80;;;47.90;;
51525;SDS011;37611;51.794;21.590;2023-10-09T18:21:21;80.30;;;52.10;;
51525;SDS011;37611;51.794;21.590;2023-10-09T18:25:23;102.90;;;63.30;;
51525;SDS011;37611;51.794;21.590;2023-10-09T18:29:26;106.00;;;69.00;;
51525;SDS011;37611;51.794;21.590;2023-10-09T18:33:27;131.60;;;77.40;;
51525;SDS011;37611;51.794;21.590;2023-10-09T18:37:29;129.70;;;77.30;;
51525;SDS011;37611;51.794;21.590;2023-10-09T18:41:31;145.20;;;93.00;;
51525;SDS011;37611;51.794;21.590;2023-10-09T18:45:33;115.80;;;77.20;;
51525;SDS011;37611;51.794;21.590;2023-10-09T18:49:39;103.40;;;73.90;;
51525;SDS011;37611;51.794;21.590;2023-10-09T18:53:41;124.00;;;79.40;;
51525;SDS011;37611;51.794;21.590;2023-10-09T18:57:44;110.40;;;73.50;;
51525;SDS011;37611;51.794;21.590;2023-10-09T19:01:56;104.70;;;68.20;;
51525;SDS011;37611;51.794;21.590;2023-10-09T19:05:59;85.00;;;59.60;;
51525;SDS011;37611;51.794;21.590;2023-10-09T19:10:01;89.60;;;65.60;;
51525;SDS011;37611;51.794;21.590;2023-10-09T19:14:03;90.20;;;66.00;;
51525;SDS011;37611;51.794;21.590;2023-10-09T19:18:09;134.60;;;90.20;;
51525;SDS011;37611;51.794;21.590;2023-10-09T19:22:14;159.10;;;103.50;;
51525;SDS011;37611;51.794;21.590;2023-10-09T19:26:17;267.50;;;164.50;;
51525;SDS011;37611;51.794;21.590;2023-10-09T19:30:19;312.60;;;202.30;;
51525;SDS011;37611;51.794;21.590;2023-10-09T19:34:21;448.30;;;284.40;;
51525;SDS011;37611;51.794;21.590;2023-10-09T19:38:22;526.40;;;329.60;;
51525;SDS011;37611;51.794;21.590;2023-10-09T19:42:24;491.60;;;312.90;;
51525;SDS011;37611;51.794;21.590;2023-10-09T19:46:26;460.30;;;308.60;;
51525;SDS011;37611;51.794;21.590;2023-10-09T19:50:29;426.20;;;274.40;;
51525;SDS011;37611;51.794;21.590;2023-10-09T19:54:31;399.10;;;266.10;;
51525;SDS011;37611;51.794;21.590;2023-10-09T19:58:38;398.50;;;267.30;;
51525;SDS011;37611;51.794;21.590;2023-10-09T20:02:42;440.50;;;289.00;;
51525;SDS011;37611;51.794;21.590;2023-10-09T20:06:44;353.70;;;234.00;;
51525;SDS011;37611;51.794;21.590;2023-10-09T20:10:47;398.80;;;261.30;;
51525;SDS011;37611;51.794;21.590;2023-10-09T20:14:50;332.60;;;224.10;;
51525;SDS011;37611;51.794;21.590;2023-10-09T20:18:53;257.40;;;166.70;;
51525;SDS011;37611;51.794;21.590;2023-10-09T20:22:56;224.00;;;149.40;;
51525;SDS011;37611;51.794;21.590;2023-10-09T20:26:58;254.50;;;168.90;;
51525;SDS011;37611;51.794;21.590;2023-10-09T20:31:00;257.20;;;170.80;;
51525;SDS011;37611;51.794;21.590;2023-10-09T20:35:05;329.00;;;206.30;;
51525;SDS011;37611;51.794;21.590;2023-10-09T20:39:13;330.90;;;200.30;;
51525;SDS011;37611;51.794;21.590;2023-10-09T20:43:17;315.90;;;198.60;;
51525;SDS011;37611;51.794;21.590;2023-10-09T20:47:19;315.20;;;196.80;;
51525;SDS011;37611;51.794;21.590;2023-10-09T20:51:21;312.50;;;196.10;;
51525;SDS011;37611;51.794;21.590;2023-10-09T20:55:22;339.50;;;205.40;;
51525;SDS011;37611;51.794;21.590;2023-10-09T20:59:24;262.90;;;159.10;;
51525;SDS011;37611;51.794;21.590;2023-10-09T21:03:26;220.70;;;134.80;;
51525;SDS011;37611;51.794;21.590;2023-10-09T21:07:29;203.00;;;126.90;;
51525;SDS011;37611;51.794;21.590;2023-10-09T21:11:31;208.80;;;128.30;;
51525;SDS011;37611;51.794;21.590;2023-10-09T21:15:38;275.00;;;159.40;;
51525;SDS011;37611;51.794;21.590;2023-10-09T21:19:42;273.20;;;153.20;;
51525;SDS011;37611;51.794;21.590;2023-10-09T21:23:44;262.90;;;146.80;;
51525;SDS011;37611;51.794;21.590;2023-10-09T21:27:46;272.70;;;161.40;;
51525;SDS011;37611;51.794;21.590;2023-10-09T21:31:49;231.00;;;136.90;;
51525;SDS011;37611;51.794;21.590;2023-10-09T21:35:54;183.40;;;106.10;;
51525;SDS011;37611;51.794;21.590;2023-10-09T21:39:59;142.90;;;82.70;;
51525;SDS011;37611;51.794;21.590;2023-10-09T21:44:04;143.20;;;89.40;;
51525;SDS011;37611;51.794;21.590;2023-10-09T21:48:08;131.40;;;80.00;;
51525;SDS011;37611;51.794;21.590;2023-10-09T21:52:10;142.80;;;79.80;;
51525;SDS011;37611;51.794;21.590;2023-10-09T21:56:14;130.50;;;76.30;;
51525;SDS011;37611;51.794;21.590;2023-10-09T22:00:17;129.10;;;78.50;;
51525;SDS011;37611;51.794;21.590;2023-10-09T22:04:22;132.30;;;81.50;;
51525;SDS011;37611;51.794;21.590;2023-10-09T22:08:27;103.40;;;64.00;;
51525;SDS011;37611;51.794;21.590;2023-10-09T22:12:29;82.30;;;51.40;;
51525;SDS011;37611;51.794;21.590;2023-10-09T22:16:33;81.50;;;50.50;;
51525;SDS011;37611;51.794;21.590;2023-10-09T22:20:34;55.70;;;36.80;;
51525;SDS011;37611;51.794;21.590;2023-10-09T22:24:37;47.90;;;32.40;;
51525;SDS011;37611;51.794;21.590;2023-10-09T22:28:42;51.60;;;34.40;;
51525;SDS011;37611;51.794;21.590;2023-10-09T22:32:47;47.30;;;33.00;;
51525;SDS011;37611;51.794;21.590;2023-10-09T22:36:49;49.50;;;33.80;;
51525;SDS011;37611;51.794;21.590;2023-10-09T22:40:55;49.60;;;34.00;;
51525;SDS011;37611;51.794;21.590;2023-10-09T22:44:57;50.30;;;34.90;;
51525;SDS011;37611;51.794;21.590;2023-10-09T22:48:58;48.10;;;33.20;;
51525;SDS011;37611;51.794;21.590;2023-10-09T22:53:15;52.50;;;35.90;;
51525;SDS011;37611;51.794;21.590;2023-10-09T22:57:23;61.90;;;41.50;;
51525;SDS011;37611;51.794;21.590;2023-10-09T23:01:26;63.60;;;43.00;;
51525;SDS011;37611;51.794;21.590;2023-10-09T23:05:30;65.40;;;43.40;;
51525;SDS011;37611;51.794;21.590;2023-10-09T23:09:32;67.80;;;43.30;;
51525;SDS011;37611;51.794;21.590;2023-10-09T23:13:35;57.20;;;39.40;;
51525;SDS011;37611;51.794;21.590;2023-10-09T23:17:53;65.00;;;43.30;;
51525;SDS011;37611;51.794;21.590;2023-10-09T23:21:54;61.00;;;41.70;;
51525;SDS011;37611;51.794;21.590;2023-10-09T23:26:15;65.00;;;42.40;;
51525;SDS011;37611;51.794;21.590;2023-10-09T23:30:23;77.40;;;48.10;;
51525;SDS011;37611;51.794;21.590;2023-10-09T23:34:25;72.80;;;46.50;;
51525;SDS011;37611;51.794;21.590;2023-10-09T23:38:34;70.90;;;46.90;;
51525;SDS011;37611;51.794;21.590;2023-10-09T23:42:38;55.10;;;58.30;;
51525;SDS011;37611;51.794;21.590;2023-10-09T23:46:40;75.40;;;47.60;;
51525;SDS011;37611;51.794;21.590;2023-10-09T23:50:45;72.70;;;48.70;;
51525;SDS011;37611;51.794;21.590;2023-10-09T23:54:49;78.20;;;50.40;;
51525;SDS011;37611;51.794;21.590;2023-10-09T23:58:57;80.80;;;52.30;;
